Time;durP1;ratioP1;P1;durP2;ratioP2;P2;SDS_P1;SDS_P2;PMS_P1;PMS_P2;Temp;Humidity;BMP_temperature;BMP_pressure;BME280_temperature;BME280_humidity;BME280_pressure;Samples;Min_cycle;Max_cycle;Signal;HPM_P1;HPM_P2
2023/01/21 00:01:15;;;;;;;14.88;6.13;;;1.00;91.00;;;;;;5027010;28;20071;-69
2023/01/21 00:03:41;;;;;;;11.02;4.05;;;1.00;91.00;;;;;;5025163;28;20033;-70
2023/01/21 00:06:07;;;;;;;10.98;4.45;;;1.00;91.00;;;;;;5024103;28;20079;-68
2023/01/21 00:08:33;;;;;;;6.10;3.10;;;1.00;91.00;;;;;;5025163;28;20022;-68
2023/01/21 00:11:16;;;;;;;7.32;3.47;;;1.10;91.00;;;;;;5024568;28;20033;-71
2023/01/21 00:13:42;;;;;;;9.82;3.78;;;1.10;91.00;;;;;;5026357;28;20072;-67
2023/01/21 00:16:08;;;;;;;14.18;4.65;;;1.00;91.00;;;;;;5024004;28;20124;-69
2023/01/21 00:18:34;;;;;;;10.52;5.07;;;1.00;91.00;;;;;;5026039;28;20474;-67
2023/01/21 00:21:00;;;;;;;11.43;4.82;;;1.00;91.00;;;;;;5024734;28;20574;-66
2023/01/21 00:23:26;;;;;;;12.15;5.13;;;1.00;91.00;;;;;;5022590;28;20049;-67
2023/01/21 00:26:02;;;;;;;9.73;4.15;;;1.00;91.00;;;;;;5024132;28;20061;-66
2023/01/21 00:28:30;;;;;;;8.73;4.18;;;1.00;91.00;;;;;;5024689;28;20025;-66
2023/01/21 00:30:57;;;;;;;8.55;4.13;;;1.00;91.00;;;;;;5024382;28;20029;-67
2023/01/21 00:33:22;;;;;;;12.38;4.47;;;0.90;91.00;;;;;;5026512;28;20030;-66
2023/01/21 00:36:03;;;;;;;10.75;4.78;;;0.90;91.00;;;;;;5025581;28;20183;-67
2023/01/21 00:38:29;;;;;;;11.45;4.25;;;0.90;91.10;;;;;;5025979;28;20075;-67
2023/01/21 00:41:10;;;;;;;11.25;3.85;;;0.90;91.00;;;;;;5021879;28;20018;-68
2023/01/21 00:43:38;;;;;;;8.13;4.05;;;0.90;91.10;;;;;;5028056;28;20032;-66
2023/01/21 00:46:03;;;;;;;8.07;3.08;;;0.90;91.10;;;;;;5029025;28;20646;-66
2023/01/21 00:48:29;;;;;;;9.52;4.47;;;0.90;91.10;;;;;;5029123;28;20083;-66
2023/01/21 00:50:59;;;;;;;13.23;5.05;;;0.80;91.10;;;;;;5028382;28;20034;-66
2023/01/21 00:53:29;;;;;;;11.45;4.10;;;0.80;91.10;;;;;;5029253;28;20025;-66
2023/01/21 00:56:01;;;;;;;10.40;4.75;;;0.80;91.10;;;;;;5029098;28;20033;-68
2023/01/21 00:58:28;;;;;;;11.27;4.97;;;0.80;91.10;;;;;;5029692;28;20080;-67
2023/01/21 01:01:11;;;;;;;13.50;5.25;;;0.80;91.00;;;;;;5027913;28;20018;-67
2023/01/21 01:03:38;;;;;;;15.93;6.20;;;0.80;91.00;;;;;;5028312;28;20018;-66
2023/01/21 01:06:06;;;;;;;9.55;5.13;;;0.70;91.00;;;;;;5025908;28;20028;-66
2023/01/21 01:08:32;;;;;;;11.52;5.10;;;0.70;91.00;;;;;;5026592;28;20056;-66
2023/01/21 01:10:57;;;;;;;17.38;6.75;;;0.70;91.00;;;;;;5027843;28;20496;-67
2023/01/21 01:13:23;;;;;;;13.02;6.00;;;0.70;91.10;;;;;;5029596;28;20108;-67
2023/01/21 01:15:51;;;;;;;12.48;5.63;;;0.60;91.00;;;;;;5028880;28;20409;-70
2023/01/21 01:18:17;;;;;;;10.77;4.82;;;0.60;91.10;;;;;;5025256;28;20129;-69
2023/01/21 01:20:43;;;;;;;13.55;4.70;;;0.60;91.10;;;;;;5026396;28;20505;-65
2023/01/21 01:23:09;;;;;;;11.48;5.15;;;0.60;91.10;;;;;;5027103;28;20049;-69
2023/01/21 01:25:36;;;;;;;14.88;5.45;;;0.50;91.10;;;;;;5029225;28;20076;-68
2023/01/21 01:28:03;;;;;;;9.30;4.63;;;0.50;91.10;;;;;;5029378;28;20021;-67
2023/01/21 01:30:29;;;;;;;13.70;5.28;;;0.50;91.10;;;;;;5029082;28;20040;-65
2023/01/21 01:32:54;;;;;;;10.30;4.60;;;0.50;91.10;;;;;;5028289;28;20021;-67
2023/01/21 01:35:20;;;;;;;12.88;5.30;;;0.50;91.20;;;;;;5026654;28;20068;-66
2023/01/21 01:37:45;;;;;;;11.20;4.18;;;0.50;91.20;;;;;;5029014;28;20552;-67
2023/01/21 01:40:11;;;;;;;10.85;4.72;;;0.50;91.10;;;;;;5029978;28;20436;-66
2023/01/21 01:42:37;;;;;;;16.92;5.63;;;0.50;91.20;;;;;;5029513;28;20021;-66
2023/01/21 01:45:06;;;;;;;15.35;5.38;;;0.50;91.20;;;;;;5029641;28;20022;-67
2023/01/21 01:47:41;;;;;;;11.68;5.15;;;0.40;91.20;;;;;;5022987;28;20104;-67
2023/01/21 01:50:10;;;;;;;10.18;4.40;;;0.40;91.20;;;;;;5029802;28;20025;-67
2023/01/21 01:52:36;;;;;;;14.52;5.22;;;0.40;91.20;;;;;;5022586;28;20025;-67
2023/01/21 01:55:03;;;;;;;11.52;4.60;;;0.40;91.20;;;;;;5029863;28;20033;-66
2023/01/21 01:57:35;;;;;;;10.27;4.90;;;0.40;91.20;;;;;;5027831;28;20034;-66
2023/01/21 02:00:07;;;;;;;10.93;4.78;;;0.40;91.20;;;;;;5028979;28;20495;-69
2023/01/21 02:02:33;;;;;;;14.57;5.88;;;0.40;91.20;;;;;;5028920;28;20506;-66
2023/01/21 02:05:04;;;;;;;8.60;3.60;;;0.30;91.20;;;;;;5029861;28;20096;-67
2023/01/21 02:07:38;;;;;;;13.20;4.57;;;0.30;91.30;;;;;;5022931;28;20491;-66
2023/01/21 02:10:18;;;;;;;11.27;5.25;;;0.30;91.30;;;;;;5029852;28;20025;-67
2023/01/21 02:12:44;;;;;;;8.98;3.75;;;0.30;91.30;;;;;;5024651;28;20048;-66
2023/01/21 02:15:10;;;;;;;10.55;4.40;;;0.30;91.30;;;;;;5028084;28;20476;-68
2023/01/21 02:18:00;;;;;;;10.57;4.82;;;0.30;91.30;;;;;;5028973;28;20475;-66
2023/01/21 02:20:29;;;;;;;8.50;4.13;;;0.40;91.40;;;;;;5021537;28;20053;-66
2023/01/21 02:23:25;;;;;;;8.48;3.00;;;0.30;91.30;;;;;;5029430;28;20085;-66
2023/01/21 02:26:09;;;;;;;5.75;3.47;;;0.30;91.30;;;;;;5024347;28;20563;-67
2023/01/21 02:28:53;;;;;;;6.45;2.95;;;0.30;91.60;;;;;;5023478;28;20096;-68
2023/01/21 02:31:18;;;;;;;5.10;2.58;;;0.30;91.30;;;;;;5026796;28;20029;-67
2023/01/21 02:34:03;;;;;;;5.32;2.70;;;0.30;91.30;;;;;;5027501;28;20037;-68
2023/01/21 02:36:42;;;;;;;7.25;3.83;;;0.30;91.40;;;;;;5021580;28;20032;-68
2023/01/21 02:39:10;;;;;;;10.80;5.05;;;0.30;91.40;;;;;;5027702;28;20037;-68
2023/01/21 02:41:54;;;;;;;9.10;4.28;;;0.30;91.40;;;;;;5028027;28;20025;-68
2023/01/21 02:44:26;;;;;;;11.38;4.88;;;0.30;91.40;;;;;;5026468;28;21258;-65
2023/01/21 02:46:54;;;;;;;6.50;3.93;;;0.30;91.40;;;;;;5029340;28;20388;-68
2023/01/21 02:49:47;;;;;;;6.93;3.45;;;0.20;91.40;;;;;;5028045;28;20079;-69
2023/01/21 02:52:20;;;;;;;6.85;3.03;;;0.30;91.40;;;;;;5028167;28;20064;-67
2023/01/21 02:54:57;;;;;;;7.78;3.45;;;0.30;91.40;;;;;;5023192;28;20028;-67
2023/01/21 02:57:36;;;;;;;8.02;3.50;;;0.30;91.40;;;;;;5026273;28;20033;-66
2023/01/21 03:00:07;;;;;;;10.02;3.72;;;0.30;91.40;;;;;;5028638;28;20033;-68
2023/01/21 03:02:35;;;;;;;8.60;3.70;;;0.30;91.40;;;;;;5028396;28;20032;-67
2023/01/21 03:05:28;;;;;;;6.72;2.90;;;0.30;91.40;;;;;;5028538;28;20041;-67
2023/01/21 03:07:59;;;;;;;;;;;0.30;91.40;;;;;;5028968;28;20036;-67
2023/01/21 03:10:34;;;;;;;11.15;3.28;;;0.30;91.30;;;;;;5028765;28;19936;-67
2023/01/21 03:13:02;;;;;;;6.45;3.15;;;0.20;91.40;;;;;;5028534;28;20021;-67
2023/01/21 03:18:39;;;;;;;9.48;3.33;;;0.20;91.50;;;;;;5026316;28;20041;-66
2023/01/21 03:21:14;;;;;;;8.73;3.85;;;0.20;91.50;;;;;;5028621;28;20048;-69
2023/01/21 03:23:43;;;;;;;7.30;3.03;;;0.20;91.50;;;;;;5022967;28;20026;-66
2023/01/21 03:26:12;;;;;;;6.30;3.05;;;0.20;91.50;;;;;;5026897;28;20032;-67
2023/01/21 03:28:43;;;;;;;7.30;2.97;;;0.20;91.50;;;;;;5024881;28;20667;-67
2023/01/21 03:31:15;;;;;;;8.50;4.40;;;0.20;91.50;;;;;;5028123;28;20552;-69
2023/01/21 03:33:44;;;;;;;6.13;3.22;;;0.20;91.60;;;;;;5023162;28;20038;-68
2023/01/21 03:36:22;;;;;;;7.72;2.70;;;0.20;91.60;;;;;;5027330;28;20029;-67
2023/01/21 03:38:50;;;;;;;7.15;3.03;;;0.20;91.60;;;;;;5027202;28;20399;-68
2023/01/21 03:41:21;;;;;;;5.45;2.90;;;0.20;91.50;;;;;;5027153;28;20021;-67
2023/01/21 03:43:47;;;;;;;9.35;3.85;;;0.20;91.60;;;;;;5025865;28;20026;-66
2023/01/21 03:46:42;;;;;;;10.63;4.28;;;0.30;91.50;;;;;;5027030;28;20468;-66
2023/01/21 03:49:11;;;;;;;5.40;2.50;;;0.30;91.50;;;;;;5027515;28;20121;-67
2023/01/21 03:51:41;;;;;;;5.15;2.55;;;0.30;91.50;;;;;;5028385;28;20029;-67
2023/01/21 03:54:07;;;;;;;10.13;4.50;;;0.30;91.50;;;;;;5026941;28;20502;-66
2023/01/21 03:56:32;;;;;;;6.15;2.92;;;0.20;91.50;;;;;;5027938;28;20041;-67
2023/01/21 03:58:58;;;;;;;10.55;4.32;;;0.20;91.50;;;;;;5027141;28;20038;-67
2023/01/21 04:01:23;;;;;;;7.70;3.38;;;0.20;91.50;;;;;;5028074;28;20014;-67
2023/01/21 04:03:49;;;;;;;6.97;3.33;;;0.30;91.60;;;;;;5027652;28;20022;-70
2023/01/21 04:06:17;;;;;;;7.25;3.00;;;0.20;91.50;;;;;;5028183;28;20025;-67
2023/01/21 04:08:43;;;;;;;9.18;4.65;;;0.20;91.50;;;;;;5027488;28;20025;-67
2023/01/21 04:11:09;;;;;;;4.72;2.63;;;0.20;91.50;;;;;;5025775;28;20032;-67
2023/01/21 04:13:35;;;;;;;6.32;2.35;;;0.20;91.50;;;;;;5027828;28;20030;-67
2023/01/21 04:16:00;;;;;;;5.55;3.08;;;0.20;91.50;;;;;;5026450;28;20040;-69
2023/01/21 04:18:26;;;;;;;8.15;3.05;;;0.20;91.60;;;;;;5027295;28;20041;-66
2023/01/21 04:20:51;;;;;;;5.20;2.72;;;0.20;91.50;;;;;;5031891;28;20032;-66
2023/01/21 04:23:17;;;;;;;6.05;3.15;;;0.20;91.50;;;;;;5031324;28;20021;-67
2023/01/21 04:25:42;;;;;;;8.18;3.88;;;0.20;91.50;;;;;;5030989;28;20041;-67
2023/01/21 04:28:08;;;;;;;6.35;2.15;;;0.20;91.60;;;;;;5029449;28;20075;-68
2023/01/21 04:30:34;;;;;;;7.45;3.25;;;0.20;91.50;;;;;;5031902;28;20049;-67
2023/01/21 04:32:59;;;;;;;4.78;2.58;;;0.20;91.60;;;;;;5030969;28;20026;-67
2023/01/21 04:35:26;;;;;;;4.70;2.50;;;0.20;91.60;;;;;;5028099;28;20411;-68
2023/01/21 04:37:51;;;;;;;6.05;2.80;;;0.20;91.60;;;;;;5019017;28;20469;-66
2023/01/21 04:40:17;;;;;;;5.30;3.08;;;0.30;91.50;;;;;;5019756;28;20056;-68
2023/01/21 04:42:43;;;;;;;4.88;2.70;;;0.30;91.50;;;;;;5024421;28;20047;-66
2023/01/21 04:45:09;;;;;;;8.00;3.25;;;0.20;91.50;;;;;;5022010;28;20021;-68
2023/01/21 04:47:35;;;;;;;6.60;2.72;;;0.30;91.50;;;;;;5027148;28;20075;-67
2023/01/21 04:50:03;;;;;;;5.32;2.33;;;0.20;91.50;;;;;;5022809;28;20037;-66
2023/01/21 04:52:29;;;;;;;6.38;2.63;;;0.30;91.50;;;;;;5020501;28;20056;-68
2023/01/21 04:54:54;;;;;;;6.13;3.03;;;0.30;91.40;;;;;;5025013;28;20026;-68
2023/01/21 04:57:20;;;;;;;9.77;3.92;;;0.30;91.40;;;;;;5031151;28;20036;-67
2023/01/21 04:59:45;;;;;;;8.02;3.63;;;0.20;91.40;;;;;;5030805;28;20546;-67
2023/01/21 05:02:11;;;;;;;10.52;4.30;;;0.20;91.30;;;;;;5030991;28;20071;-69
2023/01/21 05:04:36;;;;;;;7.32;3.50;;;0.20;91.30;;;;;;5030755;28;20506;-66
2023/01/21 05:07:02;;;;;;;8.13;3.40;;;0.20;91.30;;;;;;5030371;28;20096;-66
2023/01/21 05:09:28;;;;;;;6.00;2.88;;;0.20;91.30;;;;;;5031889;28;20532;-68
2023/01/21 05:11:53;;;;;;;8.63;3.78;;;0.20;91.30;;;;;;5027929;28;20075;-65
2023/01/21 05:14:19;;;;;;;5.20;2.53;;;0.20;91.40;;;;;;5027080;28;20120;-67
2023/01/21 05:16:44;;;;;;;7.70;3.17;;;0.20;91.30;;;;;;5031952;28;20037;-67
2023/01/21 05:19:10;;;;;;;7.30;3.35;;;0.20;91.40;;;;;;5030096;28;20030;-68
2023/01/21 05:21:35;;;;;;;8.13;3.22;;;0.20;91.40;;;;;;5030521;28;20087;-67
2023/01/21 05:24:01;;;;;;;12.57;3.88;;;0.20;91.40;;;;;;5029570;28;20393;-67
2023/01/21 05:26:27;;;;;;;10.07;4.40;;;0.20;91.40;;;;;;5030814;28;20048;-67
2023/01/21 05:28:52;;;;;;;8.30;3.58;;;0.30;91.50;;;;;;5029260;28;20111;-70
2023/01/21 05:31:18;;;;;;;10.02;3.65;;;0.20;91.40;;;;;;5025436;28;20033;-65
2023/01/21 05:33:44;;;;;;;12.75;5.47;;;0.20;91.40;;;;;;5029683;28;20033;-66
2023/01/21 05:36:10;;;;;;;12.65;5.40;;;0.20;91.40;;;;;;5029770;28;20057;-67
2023/01/21 05:38:36;;;;;;;7.85;3.40;;;0.30;91.50;;;;;;5030506;28;20103;-66
2023/01/21 05:41:03;;;;;;;9.75;4.68;;;0.30;91.50;;;;;;5030299;28;20014;-67
2023/01/21 05:43:29;;;;;;;9.02;3.58;;;0.40;91.50;;;;;;5030107;28;20020;-66
2023/01/21 05:45:54;;;;;;;8.60;4.18;;;0.40;91.40;;;;;;5029858;28;20760;-67
2023/01/21 05:48:20;;;;;;;8.70;4.40;;;0.40;91.40;;;;;;5030021;28;20025;-66
2023/01/21 05:50:47;;;;;;;10.25;4.30;;;0.30;91.30;;;;;;5024269;28;20029;-67
2023/01/21 05:53:13;;;;;;;14.80;5.90;;;0.30;91.40;;;;;;5030083;28;20033;-66
2023/01/21 05:55:39;;;;;;;16.00;5.28;;;0.30;91.40;;;;;;5028326;28;20021;-66
2023/01/21 05:58:04;;;;;;;13.50;4.40;;;0.30;91.50;;;;;;5029313;28;20452;-66
2023/01/21 06:00:30;;;;;;;15.70;5.72;;;0.30;91.50;;;;;;5028981;28;20044;-66
2023/01/21 06:02:56;;;;;;;10.15;3.88;;;0.30;91.50;;;;;;5028988;28;20022;-67
2023/01/21 06:05:21;;;;;;;11.73;4.95;;;0.40;91.50;;;;;;5029599;28;20060;-67
2023/01/21 06:07:47;;;;;;;11.18;4.47;;;0.40;91.50;;;;;;5024919;28;20036;-66
2023/01/21 06:10:12;;;;;;;11.48;4.47;;;0.40;91.40;;;;;;5015539;28;20052;-68
2023/01/21 06:12:38;;;;;;;9.60;3.58;;;0.40;91.40;;;;;;5024136;28;20059;-67
2023/01/21 06:15:04;;;;;;;6.65;3.90;;;0.40;91.40;;;;;;5022320;28;20034;-66
2023/01/21 06:17:29;;;;;;;9.65;3.85;;;0.40;91.40;;;;;;5026007;28;20507;-67
2023/01/21 06:19:55;;;;;;;11.70;5.00;;;0.40;91.40;;;;;;5025800;28;20098;-67
2023/01/21 06:22:20;;;;;;;9.68;3.97;;;0.50;91.40;;;;;;5026691;28;20025;-66
2023/01/21 06:24:46;;;;;;;13.43;4.22;;;0.50;91.40;;;;;;5023339;28;20022;-68
2023/01/21 06:27:11;;;;;;;19.48;6.78;;;0.50;91.30;;;;;;5025372;28;20021;-67
2023/01/21 06:29:37;;;;;;;11.27;5.22;;;0.40;91.30;;;;;;5028852;28;20021;-68
2023/01/21 06:32:03;;;;;;;10.27;4.30;;;0.40;91.30;;;;;;5028741;28;20116;-67
2023/01/21 06:34:28;;;;;;;11.10;4.93;;;0.40;91.30;;;;;;5029226;28;20563;-67
2023/01/21 06:36:54;;;;;;;16.15;5.90;;;0.40;91.40;;;;;;5028114;28;20030;-66
2023/01/21 06:39:19;;;;;;;11.30;4.45;;;0.40;91.50;;;;;;5028161;28;20124;-66
2023/01/21 06:41:45;;;;;;;11.05;4.22;;;0.30;91.50;;;;;;5022467;28;20032;-68
2023/01/21 06:44:10;;;;;;;13.15;4.15;;;0.40;91.60;;;;;;5025580;28;20028;-65
2023/01/21 06:46:36;;;;;;;7.78;3.08;;;0.40;91.60;;;;;;5031230;28;20017;-67
2023/01/21 06:49:02;;;;;;;9.30;3.33;;;0.40;91.70;;;;;;5030219;28;20029;-66
2023/01/21 06:51:27;;;;;;;12.52;5.53;;;0.40;91.70;;;;;;5028622;28;20029;-65
2023/01/21 06:53:53;;;;;;;11.80;4.43;;;0.40;91.60;;;;;;5027901;28;20404;-67
2023/01/21 06:56:19;;;;;;;12.30;4.57;;;0.40;91.60;;;;;;5027961;28;20026;-67
2023/01/21 06:58:45;;;;;;;9.35;3.75;;;0.50;91.60;;;;;;5026540;28;20025;-66
2023/01/21 07:01:10;;;;;;;13.60;5.25;;;0.40;91.50;;;;;;5027896;28;20239;-66
2023/01/21 07:03:36;;;;;;;8.82;3.97;;;0.40;91.60;;;;;;5028660;28;20100;-67
2023/01/21 07:06:01;;;;;;;10.38;4.32;;;0.40;91.60;;;;;;5034392;28;20073;-66
2023/01/21 07:08:27;;;;;;;9.75;3.63;;;0.40;92.00;;;;;;5029481;28;20033;-68
2023/01/21 07:10:52;;;;;;;10.90;3.65;;;0.40;91.70;;;;;;5025869;28;20034;-67
2023/01/21 07:13:18;;;;;;;10.80;4.25;;;0.40;91.70;;;;;;5026832;28;20022;-70
2023/01/21 07:15:44;;;;;;;12.07;5.07;;;0.50;91.70;;;;;;5029304;28;20136;-68
2023/01/21 07:18:09;;;;;;;12.32;3.67;;;0.50;91.70;;;;;;5030402;28;20384;-67
2023/01/21 07:20:37;;;;;;;15.60;5.28;;;0.60;91.60;;;;;;5027248;28;20073;-68
2023/01/21 07:23:03;;;;;;;11.13;4.15;;;0.50;91.50;;;;;;5029081;28;20044;-67
2023/01/21 07:25:29;;;;;;;12.90;4.75;;;0.50;91.60;;;;;;5029649;28;20025;-67
2023/01/21 07:27:54;;;;;;;8.35;3.50;;;0.50;91.50;;;;;;5028679;28;20025;-70
2023/01/21 07:30:20;;;;;;;8.85;3.40;;;0.50;91.60;;;;;;5028958;28;20041;-68
2023/01/21 07:32:46;;;;;;;15.93;4.53;;;0.50;91.60;;;;;;5021555;28;20037;-68
2023/01/21 07:35:12;;;;;;;9.02;3.60;;;0.60;91.60;;;;;;5017056;28;20034;-68
2023/01/21 07:37:38;;;;;;;14.70;5.40;;;0.60;91.60;;;;;;5019848;28;21323;-68
2023/01/21 07:40:05;;;;;;;10.35;3.75;;;0.60;91.60;;;;;;5027080;28;20040;-68
2023/01/21 07:42:31;;;;;;;18.98;6.18;;;0.60;91.60;;;;;;5028571;28;20025;-69
2023/01/21 07:44:58;;;;;;;11.25;5.35;;;0.60;91.70;;;;;;5026878;28;20360;-69
2023/01/21 07:47:24;;;;;;;19.95;6.82;;;0.60;91.70;;;;;;5021533;28;20029;-68
2023/01/21 07:49:49;;;;;;;10.95;5.20;;;0.50;91.70;;;;;;5024831;28;20034;-68
2023/01/21 07:52:15;;;;;;;11.05;4.72;;;0.50;91.80;;;;;;5022331;28;20075;-67
2023/01/21 07:54:41;;;;;;;13.18;5.80;;;0.60;91.90;;;;;;5026822;28;20086;-68
2023/01/21 07:57:07;;;;;;;13.07;5.47;;;0.50;92.00;;;;;;5030321;28;20029;-66
2023/01/21 07:59:32;;;;;;;10.07;4.22;;;0.50;92.10;;;;;;5032761;28;20040;-65
2023/01/21 08:01:58;;;;;;;13.93;4.40;;;0.60;92.20;;;;;;5032774;28;20029;-66
2023/01/21 08:04:24;;;;;;;11.02;4.35;;;0.60;92.10;;;;;;5027629;28;20404;-67
2023/01/21 08:06:55;;;;;;;14.25;4.22;;;0.70;92.10;;;;;;5031272;28;20389;-67
2023/01/21 08:09:24;;;;;;;8.03;2.93;;;0.80;92.10;;;;;;5027736;28;20120;-66
2023/01/21 08:11:50;;;;;;;8.98;3.72;;;0.80;92.20;;;;;;5026707;28;20033;-66
2023/01/21 08:14:16;;;;;;;9.15;2.67;;;0.90;91.90;;;;;;5026085;28;20699;-66
2023/01/21 08:16:41;;;;;;;13.20;4.75;;;1.00;91.80;;;;;;5028267;28;20033;-66
2023/01/21 08:19:07;;;;;;;7.60;3.05;;;1.00;91.80;;;;;;5032617;28;20087;-66
2023/01/21 08:21:32;;;;;;;6.55;2.75;;;1.00;91.70;;;;;;5032510;28;20028;-66
2023/01/21 08:23:58;;;;;;;6.18;3.20;;;1.10;91.70;;;;;;5029471;28;20029;-66
2023/01/21 08:26:24;;;;;;;6.60;2.90;;;1.10;91.60;;;;;;5032052;28;20017;-66
2023/01/21 08:28:53;;;;;;;6.75;2.95;;;1.10;91.50;;;;;;5030877;28;20030;-66
2023/01/21 08:31:19;;;;;;;11.07;4.05;;;1.20;91.60;;;;;;5024716;28;20037;-67
2023/01/21 08:33:44;;;;;;;6.28;2.85;;;1.20;91.60;;;;;;5021406;28;20033;-67
2023/01/21 08:36:10;;;;;;;7.13;3.20;;;1.30;91.60;;;;;;5032023;28;20112;-66
2023/01/21 08:38:36;;;;;;;5.22;2.42;;;1.40;91.50;;;;;;5031983;28;20057;-66
2023/01/21 08:41:02;;;;;;;5.05;2.33;;;1.40;91.40;;;;;;5032529;28;20108;-66
2023/01/21 08:43:27;;;;;;;8.80;4.22;;;1.40;91.40;;;;;;5029340;28;20017;-68
2023/01/21 08:45:58;;;;;;;19.02;5.95;;;1.30;91.30;;;;;;5027873;28;20108;-66
2023/01/21 08:48:23;;;;;;;14.55;4.88;;;1.20;91.40;;;;;;5031269;28;20075;-66
2023/01/21 08:50:49;;;;;;;8.38;3.53;;;1.20;91.60;;;;;;5023763;28;20034;-66
2023/01/21 08:53:15;;;;;;;9.32;3.75;;;1.30;91.70;;;;;;5026245;28;20021;-65
2023/01/21 08:55:40;;;;;;;9.50;4.57;;;1.30;91.70;;;;;;5030080;28;20021;-66
2023/01/21 08:58:06;;;;;;;10.70;4.28;;;1.30;91.60;;;;;;5030358;28;20030;-67
2023/01/21 09:00:31;;;;;;;8.63;3.17;;;1.40;91.60;;;;;;5031683;28;20423;-67
2023/01/21 09:02:58;;;;;;;4.80;2.40;;;1.40;91.70;;;;;;5030254;28;20083;-66
2023/01/21 09:05:23;;;;;;;7.20;2.78;;;1.50;91.70;;;;;;5031090;28;20045;-65
2023/01/21 09:07:49;;;;;;;8.13;2.95;;;1.50;91.60;;;;;;5025535;28;20065;-66
2023/01/21 09:10:59;;;;;;;5.18;2.55;;;1.50;91.70;;;;;;5025271;28;20025;-67
2023/01/21 09:13:05;;;;;;;12.27;4.13;;;1.60;91.60;;;;;;5029644;28;20504;-66
2023/01/21 09:15:35;;;;;;;7.45;2.83;;;1.50;91.60;;;;;;5029992;28;20037;-66
2023/01/21 09:18:01;;;;;;;8.90;3.67;;;1.60;91.70;;;;;;5031599;28;20042;-67
2023/01/21 09:20:26;;;;;;;7.85;3.78;;;1.70;91.70;;;;;;5029114;28;21693;-65
2023/01/21 09:22:52;;;;;;;6.00;2.70;;;1.80;91.60;;;;;;5024712;28;20085;-65
2023/01/21 09:25:17;;;;;;;11.60;3.85;;;1.90;91.50;;;;;;5026861;28;20052;-67
2023/01/21 09:27:43;;;;;;;9.05;4.07;;;1.90;91.30;;;;;;5025838;28;20621;-65
2023/01/21 09:30:09;;;;;;;8.95;3.95;;;1.90;91.30;;;;;;5026242;28;20033;-65
2023/01/21 09:32:35;;;;;;;6.13;3.25;;;1.90;91.20;;;;;;5030220;28;20037;-65
2023/01/21 09:35:00;;;;;;;6.57;3.10;;;2.00;91.10;;;;;;5028136;28;21231;-68
2023/01/21 09:37:26;;;;;;;5.00;2.50;;;2.00;91.10;;;;;;5029363;28;20395;-67
2023/01/21 09:39:51;;;;;;;9.27;3.70;;;2.00;91.20;;;;;;5027395;28;20412;-67
2023/01/21 09:42:20;;;;;;;6.10;2.50;;;2.10;91.20;;;;;;5028413;28;20491;-66
2023/01/21 09:44:49;;;;;;;5.57;2.80;;;2.10;91.10;;;;;;5024156;28;21251;-66
2023/01/21 09:47:30;;;;;;;6.07;2.92;;;2.20;91.00;;;;;;5029507;28;20076;-65
2023/01/21 09:50:02;;;;;;;6.80;3.10;;;2.20;91.00;;;;;;5025412;28;20037;-66
2023/01/21 09:52:44;;;;;;;6.70;2.67;;;2.30;91.00;;;;;;5026253;28;20032;-68
2023/01/21 09:55:25;;;;;;;4.90;2.20;;;2.30;91.00;;;;;;5027427;28;20044;-66
2023/01/21 09:57:59;;;;;;;5.85;2.92;;;2.40;91.00;;;;;;5026573;28;20033;-66
2023/01/21 10:00:28;;;;;;;6.43;2.58;;;2.40;90.90;;;;;;5021269;28;20492;-68
2023/01/21 10:03:07;;;;;;;6.97;3.45;;;2.40;90.90;;;;;;5024349;28;20040;-66
2023/01/21 10:05:38;;;;;;;5.40;2.38;;;2.40;90.80;;;;;;5026506;28;20041;-65
2023/01/21 10:08:38;;;;;;;5.15;2.17;;;2.40;90.80;;;;;;5027718;28;20028;-66
2023/01/21 10:11:29;;;;;;;2.65;1.52;;;2.50;91.20;;;;;;5023557;28;20051;-66
2023/01/21 10:14:13;;;;;;;4.82;2.47;;;2.50;91.00;;;;;;5026323;28;20038;-67
2023/01/21 10:17:16;;;;;;;6.13;2.92;;;2.60;91.00;;;;;;5027606;28;20025;-66
2023/01/21 10:19:49;;;;;;;4.95;2.60;;;2.70;90.90;;;;;;5024951;28;20108;-67
2023/01/21 10:22:20;;;;;;;6.03;2.45;;;2.70;90.90;;;;;;5027724;28;20026;-65
2023/01/21 10:24:59;;;;;;;7.38;3.15;;;2.80;90.80;;;;;;5030298;28;20057;-67
2023/01/21 10:27:27;;;;;;;6.28;2.67;;;2.80;90.70;;;;;;5028300;28;20021;-66
2023/01/21 10:29:56;;;;;;;8.63;3.47;;;2.70;90.50;;;;;;5028828;28;20087;-67
2023/01/21 10:32:26;;;;;;;6.55;2.83;;;2.70;90.50;;;;;;5027454;28;20052;-66
2023/01/21 10:34:53;;;;;;;5.00;2.60;;;2.80;90.60;;;;;;5028927;28;20029;-65
2023/01/21 10:37:24;;;;;;;6.80;2.35;;;2.80;90.60;;;;;;5023807;28;20030;-65
2023/01/21 10:40:41;;;;;;;5.25;2.47;;;2.80;90.60;;;;;;5022152;28;20388;-64
2023/01/21 10:43:27;;;;;;;5.85;2.58;;;2.80;90.60;;;;;;5026660;28;20037;-65
2023/01/21 10:46:23;;;;;;;3.88;1.70;;;2.80;90.60;;;;;;5026875;28;20044;-66
2023/01/21 10:49:01;;;;;;;5.32;2.53;;;2.80;90.60;;;;;;5026775;28;20037;-66
2023/01/21 10:51:43;;;;;;;7.28;3.10;;;2.90;90.60;;;;;;5029478;28;20029;-65
2023/01/21 10:54:31;;;;;;;10.90;4.18;;;2.90;90.60;;;;;;5028410;28;20120;-67
2023/01/21 10:57:15;;;;;;;13.32;4.05;;;2.90;90.50;;;;;;5028097;28;20026;-68
2023/01/21 10:59:41;;;;;;;12.68;5.25;;;3.00;90.50;;;;;;5024611;28;20029;-66
2023/01/21 11:02:07;;;;;;;11.20;4.07;;;3.00;90.50;;;;;;5028320;28;20025;-67
2023/01/21 11:04:34;;;;;;;10.15;4.28;;;3.00;90.50;;;;;;5026744;28;20385;-66
2023/01/21 11:07:02;;;;;;;12.32;4.57;;;3.00;90.40;;;;;;5028765;28;20064;-66
2023/01/21 11:09:31;;;;;;;8.10;3.85;;;3.00;90.40;;;;;;5026815;28;20034;-68
2023/01/21 11:11:57;;;;;;;10.35;4.10;;;3.00;90.40;;;;;;5027362;28;20059;-67
2023/01/21 11:14:26;;;;;;;11.38;3.75;;;3.00;90.40;;;;;;5028267;28;20508;-67
2023/01/21 11:16:53;;;;;;;7.93;3.05;;;3.00;90.40;;;;;;5027538;28;20049;-66
2023/01/21 11:19:29;;;;;;;10.85;2.75;;;2.90;90.40;;;;;;5026366;28;20037;-68
2023/01/21 11:22:12;;;;;;;8.65;3.15;;;3.00;90.50;;;;;;5025862;28;20029;-65
2023/01/21 11:24:43;;;;;;;7.78;3.53;;;3.00;90.50;;;;;;5025267;28;20033;-67
2023/01/21 11:27:29;;;;;;;5.32;2.85;;;3.10;90.50;;;;;;5025324;28;20703;-66
2023/01/21 11:29:55;;;;;;;6.93;2.80;;;3.10;90.50;;;;;;5022888;28;20491;-65
2023/01/21 11:32:23;;;;;;;8.25;3.45;;;3.10;90.40;;;;;;5024027;28;20069;-66
2023/01/21 11:34:52;;;;;;;9.40;3.20;;;3.10;90.50;;;;;;5025516;28;20025;-66
2023/01/21 11:37:23;;;;;;;9.82;4.05;;;3.10;90.50;;;;;;5026214;28;20052;-67
2023/01/21 11:39:58;;;;;;;7.63;3.47;;;3.10;90.50;;;;;;5023107;28;20079;-66
2023/01/21 11:42:24;;;;;;;4.50;2.42;;;3.20;90.70;;;;;;5021104;28;20495;-67
2023/01/21 11:45:29;;;;;;;4.72;2.38;;;3.30;90.60;;;;;;5024165;28;20024;-66
2023/01/21 11:47:54;;;;;;;8.95;3.25;;;3.40;90.50;;;;;;5022918;28;20494;-67
2023/01/21 11:50:38;;;;;;;5.28;2.63;;;3.50;90.40;;;;;;5023327;28;20152;-66
2023/01/21 11:53:06;;;;;;;7.53;3.40;;;3.60;90.40;;;;;;5026864;28;20034;-65
2023/01/21 11:55:38;;;;;;;7.32;2.67;;;3.70;90.30;;;;;;5024262;28;20028;-67
2023/01/21 11:58:12;;;;;;;8.52;3.40;;;3.70;90.10;;;;;;5023143;28;20391;-68
2023/01/21 12:00:37;;;;;;;7.93;3.17;;;3.70;90.10;;;;;;5033330;28;20018;-65
2023/01/21 12:03:04;;;;;;;7.10;2.47;;;3.70;90.10;;;;;;5027195;28;20066;-67
2023/01/21 12:05:36;;;;;;;3.70;2.10;;;3.70;90.10;;;;;;5026292;28;20068;-65
2023/01/21 12:08:06;;;;;;;4.05;2.10;;;3.80;90.10;;;;;;5026346;28;20488;-66
2023/01/21 12:10:41;;;;;;;5.60;1.88;;;3.80;90.10;;;;;;5020615;28;20033;-67
2023/01/21 12:13:22;;;;;;;7.22;2.67;;;3.80;90.10;;;;;;5024067;28;20110;-67
2023/01/21 12:16:12;;;;;;;5.50;2.45;;;3.80;90.00;;;;;;5024612;28;20037;-66
2023/01/21 12:18:56;;;;;;;5.43;2.10;;;3.80;90.10;;;;;;5022569;28;20037;-66
2023/01/21 12:21:28;;;;;;;6.25;1.92;;;3.90;90.00;;;;;;5024285;28;20033;-66
2023/01/21 12:23:59;;;;;;;5.10;1.90;;;3.90;90.00;;;;;;5025658;28;20040;-67
2023/01/21 12:26:58;;;;;;;7.40;2.88;;;3.90;89.80;;;;;;5026494;28;20076;-66
2023/01/21 12:29:56;;;;;;;4.35;2.10;;;4.00;89.80;;;;;;5025372;28;20061;-66
2023/01/21 12:32:30;;;;;;;8.23;2.42;;;4.00;89.60;;;;;;5025812;28;20040;-66
2023/01/21 12:35:07;;;;;;;5.22;2.38;;;4.00;89.50;;;;;;5027162;28;20032;-66
2023/01/21 12:37:47;;;;;;;6.88;2.90;;;4.00;89.60;;;;;;5025333;28;20025;-68
2023/01/21 12:40:29;;;;;;;7.50;2.50;;;4.10;89.70;;;;;;5026945;28;20116;-66
2023/01/21 12:43:01;;;;;;;5.05;2.50;;;4.10;89.40;;;;;;5028294;28;20026;-67
2023/01/21 12:45:38;;;;;;;7.45;2.50;;;4.10;89.40;;;;;;5028164;28;20021;-68
2023/01/21 12:48:58;;;;;;;7.00;2.42;;;4.10;89.40;;;;;;5028487;28;20040;-67
2023/01/21 12:51:29;;;;;;;7.68;2.95;;;4.10;89.30;;;;;;4985471;28;20125;-66
2023/01/21 12:54:03;;;;;;;5.55;2.58;;;4.10;89.20;;;;;;5022858;28;20030;-66
2023/01/21 12:56:31;;;;;;;3.15;2.03;;;4.10;89.10;;;;;;5028044;28;20037;-68
2023/01/21 12:59:27;;;;;;;5.53;2.58;;;4.20;89.30;;;;;;5029705;28;20051;-67
2023/01/21 13:02:31;;;;;;;6.45;2.50;;;4.20;89.20;;;;;;5029701;28;20029;-67
2023/01/21 13:05:11;;;;;;;3.17;1.80;;;4.20;89.00;;;;;;5024571;28;20034;-65
2023/01/21 13:07:48;;;;;;;4.75;2.13;;;4.20;88.90;;;;;;5030106;28;20022;-67
2023/01/21 13:10:37;;;;;;;6.68;3.03;;;4.50;89.20;;;;;;5025224;28;20036;-67
2023/01/21 13:13:32;;;;;;;5.65;2.28;;;5.50;86.90;;;;;;5028180;28;20602;-67